• Join FlightAware (Why Join?)
  • Login
  • US Flag 
Gobble Gobble! 
11:38AM EST


 

Airport Tracker/Info


-or-


 

Live Flight TrackerFlight Track Log ✈ JEX3117 ✈ 19-May-2013 ✈ RJGG / NGO - RJCC / CTS

Flight Track Log - Related Links

Times and Time Zones

All times are in EDT time to prevent confusion due to time zone crossing. See the JEX3117 flight status page for this flight to view local times or setup timezone preferences in your user account.

Time Position Orientation Groundspeed Altitude Reporting Facility
EDT Latitude Longitude Course Direction KTS MPH feet Rate Location/Type
06:10AM 35.1918 136.9886 24° Northeast  Level Estimated
06:11AM 35.3028 137.0500 24° Northeast  Level Estimated
06:12AM 35.4139 137.1116 24° Northeast  Level Estimated
06:13AM 35.5249 137.1734 24° Northeast  Level Estimated
06:14AM 35.6359 137.2353 24° Northeast  Level Estimated
06:15AM 35.7469 137.2974 24° Northeast  Level Estimated
06:16AM 35.8578 137.3597 24° Northeast  Level Estimated
06:17AM 35.9687 137.4221 25° Northeast  Level Estimated
06:18AM 36.0796 137.4848 25° Northeast  Level Estimated
06:19AM 36.1904 137.5476 25° Northeast  Level Estimated
06:20AM 36.3012 137.6106 25° Northeast  Level Estimated
06:21AM 36.4119 137.6738 25° Northeast  Level Estimated
06:22AM 36.5227 137.7371 25° Northeast  Level Estimated
06:23AM 36.6334 137.8006 25° Northeast  Level Estimated
06:24AM 36.7440 137.8643 25° Northeast  Level Estimated
06:25AM 36.8547 137.9282 25° Northeast  Level Estimated
06:26AM 36.9652 137.9923 25° Northeast  Level Estimated
06:27AM 37.0758 138.0566 25° Northeast  Level Estimated
06:28AM 37.1863 138.1210 25° Northeast  Level Estimated
06:29AM 37.2968 138.1857 25° Northeast  Level Estimated
06:30AM 37.4073 138.2505 25° Northeast  Level Estimated
06:31AM 37.5177 138.3156 25° Northeast  Level Estimated
06:32AM 37.6281 138.3808 25° Northeast  Level Estimated
06:33AM 37.7384 138.4462 25° Northeast  Level Estimated
06:34AM 37.8487 138.5118 25° Northeast  Level Estimated
06:35AM 37.9590 138.5776 25° Northeast  Level Estimated
06:36AM 38.0692 138.6436 25° Northeast  Level Estimated
06:37AM 38.1794 138.7098 25° Northeast  Level Estimated
06:38AM 38.2896 138.7762 25° Northeast  Level Estimated
06:39AM 38.3997 138.8428 25° Northeast  Level Estimated
06:40AM 38.5083 138.9087 25° Northeast  Level Estimated
06:41AM 38.6169 138.9748 25° Northeast  Level Estimated
06:42AM 38.7254 139.0411 25° Northeast  Level Estimated
06:43AM 38.8338 139.1075 26° Northeast  Level Estimated
06:44AM 38.9423 139.1742 26° Northeast  Level Estimated
06:45AM 39.0507 139.2411 26° Northeast  Level Estimated
06:46AM 39.1590 139.3082 26° Northeast  Level Estimated
06:47AM 39.2673 139.3755 26° Northeast  Level Estimated
06:48AM 39.3756 139.4431 26° Northeast  Level Estimated
06:49AM 39.4838 139.5108 26° Northeast  Level Estimated
06:50AM 39.5920 139.5787 26° Northeast  Level Estimated
06:51AM 39.7002 139.6469 26° Northeast  Level Estimated
06:52AM 39.8083 139.7153 26° Northeast  Level Estimated
06:53AM 39.9164 139.7838 26° Northeast  Level Estimated
06:54AM 40.0244 139.8526 26° Northeast  Level Estimated
06:55AM 40.1324 139.9217 26° Northeast  Level Estimated
06:56AM 40.2404 139.9909 26° Northeast  Level Estimated
06:57AM 40.3483 140.0604 26° Northeast  Level Estimated
06:58AM 40.4562 140.1300 26° Northeast  Level Estimated
06:59AM 40.5640 140.2000 26° Northeast  Level Estimated
07:00AM 40.6718 140.2701 26° Northeast  Level Estimated
07:01AM 40.7795 140.3404 26° Northeast  Level Estimated
07:02AM 40.8872 140.4110 26° Northeast  Level Estimated
07:03AM 40.9949 140.4819 26° Northeast  Level Estimated
07:04AM 41.1025 140.5529 26° Northeast  Level Estimated
07:05AM 41.2101 140.6242 26° Northeast  Level Estimated
07:06AM 41.3176 140.6957 27° Northeast  Level Estimated
07:07AM 41.4251 140.7675 27° Northeast  Level Estimated
07:08AM 41.5325 140.8394 27° Northeast  Level Estimated
07:09AM 41.6399 140.9117 27° Northeast  Level Estimated
07:10AM 41.7503 140.9862 27° Northeast  Level Estimated
07:11AM 41.8606 141.0610 27° Northeast  Level Estimated
07:12AM 41.9709 141.1360 27° Northeast  Level Estimated
07:13AM 42.0811 141.2113 27° Northeast  Level Estimated
07:14AM 42.1913 141.2868 27° Northeast  Level Estimated
07:15AM 42.3014 141.3627 27° Northeast  Level Estimated
07:16AM 42.4115 141.4387 27° Northeast  Level Estimated
07:17AM 42.5215 141.5151 27° Northeast  Level Estimated
07:18AM 42.6315 141.5917 27° Northeast  Level Estimated
07:19AM 42.7414 141.6686 27° Northeast  Level Estimated
07:20AM 42.7752 141.6923 27° Northeast  Level Estimated
07:21AM 42.7752 141.6923 90° East  Level Estimated
07:22AM 42.7752 141.6923 90° East  Level Estimated
07:23AM 42.7752 141.6923 90° East  Level Estimated
07:24AM 42.7752 141.6923 90° East  Level Estimated
07:25AM 42.7752 141.6923 90° East  Level Estimated
07:26AM 42.7752 141.6923 90° East  Level Estimated
07:27AM 42.7752 141.6923 90° East  Level Estimated
07:28AM 42.7752 141.6923 90° East  Level Estimated
07:29AM 42.7752 141.6923 90° East  Level Estimated
07:30AM 42.7752 141.6923 90° East  Level Estimated
07:31AM 42.7752 141.6923 90° East  Level Estimated